sensor_id;sensor_type;location;lat;lon;timestamp;temperature;humidity
22450;DHT22;11392;57.390;-2.468;2023-11-19T00:00:09;7.50;99.90
22450;DHT22;11392;57.390;-2.468;2023-11-19T00:02:41;7.40;99.90
22450;DHT22;11392;57.390;-2.468;2023-11-19T00:05:10;7.40;99.90
22450;DHT22;11392;57.390;-2.468;2023-11-19T00:07:40;7.40;99.90
22450;DHT22;11392;57.390;-2.468;2023-11-19T00:10:13;7.50;99.90
22450;DHT22;11392;57.390;-2.468;2023-11-19T00:12:45;7.50;99.90
22450;DHT22;11392;57.390;-2.468;2023-11-19T00:15:16;7.50;99.90
22450;DHT22;11392;57.390;-2.468;2023-11-19T00:17:46;7.50;99.90
22450;DHT22;11392;57.390;-2.468;2023-11-19T00:20:19;7.50;99.90
22450;DHT22;11392;57.390;-2.468;2023-11-19T00:22:48;7.50;99.90
22450;DHT22;11392;57.390;-2.468;2023-11-19T00:25:20;7.50;99.90
22450;DHT22;11392;57.390;-2.468;2023-11-19T00:27:49;7.60;99.90
22450;DHT22;11392;57.390;-2.468;2023-11-19T00:30:17;7.60;99.90
22450;DHT22;11392;57.390;-2.468;2023-11-19T00:32:44;7.60;99.90
22450;DHT22;11392;57.390;-2.468;2023-11-19T00:35:12;7.60;99.90
22450;DHT22;11392;57.390;-2.468;2023-11-19T00:37:43;7.60;99.90
22450;DHT22;11392;57.390;-2.468;2023-11-19T00:40:13;7.60;99.90
22450;DHT22;11392;57.390;-2.468;2023-11-19T00:42:41;7.60;99.90
22450;DHT22;11392;57.390;-2.468;2023-11-19T00:45:08;7.60;99.90
22450;DHT22;11392;57.390;-2.468;2023-11-19T00:47:37;7.60;99.90
22450;DHT22;11392;57.390;-2.468;2023-11-19T00:50:05;7.70;99.90
22450;DHT22;11392;57.390;-2.468;2023-11-19T00:52:32;7.70;99.90
22450;DHT22;11392;57.390;-2.468;2023-11-19T00:54:59;7.70;99.90
22450;DHT22;11392;57.390;-2.468;2023-11-19T00:57:26;7.70;99.90
22450;DHT22;11392;57.390;-2.468;2023-11-19T00:59:54;7.70;99.90
22450;DHT22;11392;57.390;-2.468;2023-11-19T01:02:21;7.70;99.90
22450;DHT22;11392;57.390;-2.468;2023-11-19T01:04:48;7.60;99.90
22450;DHT22;11392;57.390;-2.468;2023-11-19T01:07:16;7.70;99.90
22450;DHT22;11392;57.390;-2.468;2023-11-19T01:09:43;7.70;99.90
22450;DHT22;11392;57.390;-2.468;2023-11-19T01:12:10;7.70;99.90
22450;DHT22;11392;57.390;-2.468;2023-11-19T01:14:37;7.70;99.90
22450;DHT22;11392;57.390;-2.468;2023-11-19T01:17:04;7.80;99.90
22450;DHT22;11392;57.390;-2.468;2023-11-19T01:19:32;7.80;99.90
22450;DHT22;11392;57.390;-2.468;2023-11-19T01:21:59;7.80;99.90
22450;DHT22;11392;57.390;-2.468;2023-11-19T01:24:26;7.70;99.90
22450;DHT22;11392;57.390;-2.468;2023-11-19T01:26:55;7.80;99.90
22450;DHT22;11392;57.390;-2.468;2023-11-19T01:29:24;7.80;99.90
22450;DHT22;11392;57.390;-2.468;2023-11-19T01:31:51;7.80;99.90
22450;DHT22;11392;57.390;-2.468;2023-11-19T01:34:18;7.80;99.90
22450;DHT22;11392;57.390;-2.468;2023-11-19T01:36:47;7.80;99.90
22450;DHT22;11392;57.390;-2.468;2023-11-19T01:39:16;7.90;99.90
22450;DHT22;11392;57.390;-2.468;2023-11-19T01:41:43;7.90;99.90
22450;DHT22;11392;57.390;-2.468;2023-11-19T01:44:10;8.00;99.90
22450;DHT22;11392;57.390;-2.468;2023-11-19T01:46:44;8.10;99.90
22450;DHT22;11392;57.390;-2.468;2023-11-19T01:49:14;8.10;99.90
22450;DHT22;11392;57.390;-2.468;2023-11-19T01:51:41;8.10;99.90
22450;DHT22;11392;57.390;-2.468;2023-11-19T01:54:08;8.10;99.90
22450;DHT22;11392;57.390;-2.468;2023-11-19T01:56:37;8.10;99.90
22450;DHT22;11392;57.390;-2.468;2023-11-19T01:59:08;8.10;99.90
22450;DHT22;11392;57.390;-2.468;2023-11-19T02:01:36;8.10;99.90
22450;DHT22;11392;57.390;-2.468;2023-11-19T02:04:08;8.10;99.90
22450;DHT22;11392;57.390;-2.468;2023-11-19T02:06:40;8.10;99.90
22450;DHT22;11392;57.390;-2.468;2023-11-19T02:09:09;8.10;99.90
22450;DHT22;11392;57.390;-2.468;2023-11-19T02:11:40;8.20;99.90
22450;DHT22;11392;57.390;-2.468;2023-11-19T02:14:07;8.20;99.90
22450;DHT22;11392;57.390;-2.468;2023-11-19T02:16:34;8.20;99.90
22450;DHT22;11392;57.390;-2.468;2023-11-19T02:19:02;8.20;99.90
22450;DHT22;11392;57.390;-2.468;2023-11-19T02:21:32;8.20;99.90
22450;DHT22;11392;57.390;-2.468;2023-11-19T02:24:00;8.20;99.90
22450;DHT22;11392;57.390;-2.468;2023-11-19T02:26:40;8.30;99.90
22450;DHT22;11392;57.390;-2.468;2023-11-19T02:29:09;8.30;99.90
22450;DHT22;11392;57.390;-2.468;2023-11-19T02:31:36;8.30;99.90
22450;DHT22;11392;57.390;-2.468;2023-11-19T02:34:04;8.30;99.90
22450;DHT22;11392;57.390;-2.468;2023-11-19T02:36:32;8.30;99.90
22450;DHT22;11392;57.390;-2.468;2023-11-19T02:39:00;8.30;99.90
22450;DHT22;11392;57.390;-2.468;2023-11-19T02:41:27;8.30;99.90
22450;DHT22;11392;57.390;-2.468;2023-11-19T02:43:54;8.30;99.90
22450;DHT22;11392;57.390;-2.468;2023-11-19T02:46:21;8.30;99.90
22450;DHT22;11392;57.390;-2.468;2023-11-19T02:48:48;8.30;99.90
22450;DHT22;11392;57.390;-2.468;2023-11-19T02:51:15;8.30;99.90
22450;DHT22;11392;57.390;-2.468;2023-11-19T02:53:42;8.30;99.90
22450;DHT22;11392;57.390;-2.468;2023-11-19T02:56:11;8.30;99.90
22450;DHT22;11392;57.390;-2.468;2023-11-19T02:58:53;8.30;99.90
22450;DHT22;11392;57.390;-2.468;2023-11-19T03:01:26;8.30;99.90
22450;DHT22;11392;57.390;-2.468;2023-11-19T03:04:01;8.30;99.90
22450;DHT22;11392;57.390;-2.468;2023-11-19T03:06:30;8.30;99.90
22450;DHT22;11392;57.390;-2.468;2023-11-19T03:08:57;8.30;99.90
22450;DHT22;11392;57.390;-2.468;2023-11-19T03:11:24;8.40;99.90
22450;DHT22;11392;57.390;-2.468;2023-11-19T03:13:51;8.40;99.90
22450;DHT22;11392;57.390;-2.468;2023-11-19T03:16:18;8.40;99.90
22450;DHT22;11392;57.390;-2.468;2023-11-19T03:18:45;8.40;99.90
22450;DHT22;11392;57.390;-2.468;2023-11-19T03:21:12;8.40;99.90
22450;DHT22;11392;57.390;-2.468;2023-11-19T03:23:40;8.30;99.90
22450;DHT22;11392;57.390;-2.468;2023-11-19T03:26:07;8.30;99.90
22450;DHT22;11392;57.390;-2.468;2023-11-19T03:28:35;8.30;99.90
22450;DHT22;11392;57.390;-2.468;2023-11-19T03:31:06;8.30;99.90
22450;DHT22;11392;57.390;-2.468;2023-11-19T03:33:36;8.30;99.90
22450;DHT22;11392;57.390;-2.468;2023-11-19T03:36:05;8.30;99.90
22450;DHT22;11392;57.390;-2.468;2023-11-19T03:38:32;8.30;99.90
22450;DHT22;11392;57.390;-2.468;2023-11-19T03:41:00;8.30;99.90
22450;DHT22;11392;57.390;-2.468;2023-11-19T03:43:27;8.30;99.90
22450;DHT22;11392;57.390;-2.468;2023-11-19T03:45:54;8.30;99.90
22450;DHT22;11392;57.390;-2.468;2023-11-19T03:48:21;8.20;99.90
22450;DHT22;11392;57.390;-2.468;2023-11-19T03:50:49;8.30;99.90
22450;DHT22;11392;57.390;-2.468;2023-11-19T03:53:16;8.20;99.90
22450;DHT22;11392;57.390;-2.468;2023-11-19T03:55:43;8.20;99.90
22450;DHT22;11392;57.390;-2.468;2023-11-19T03:58:10;8.20;99.90
22450;DHT22;11392;57.390;-2.468;2023-11-19T04:00:37;8.20;99.90
22450;DHT22;11392;57.390;-2.468;2023-11-19T04:03:04;8.20;99.90
22450;DHT22;11392;57.390;-2.468;2023-11-19T04:05:31;8.20;99.90
22450;DHT22;11392;57.390;-2.468;2023-11-19T04:07:58;8.10;99.90
22450;DHT22;11392;57.390;-2.468;2023-11-19T04:10:25;8.20;99.90
22450;DHT22;11392;57.390;-2.468;2023-11-19T04:12:54;8.10;99.90
22450;DHT22;11392;57.390;-2.468;2023-11-19T04:15:21;8.20;99.90
22450;DHT22;11392;57.390;-2.468;2023-11-19T04:17:49;8.20;99.90
22450;DHT22;11392;57.390;-2.468;2023-11-19T04:20:16;8.20;99.90
22450;DHT22;11392;57.390;-2.468;2023-11-19T04:22:43;8.10;99.90
22450;DHT22;11392;57.390;-2.468;2023-11-19T04:25:10;8.10;99.90
22450;DHT22;11392;57.390;-2.468;2023-11-19T04:27:38;8.10;99.90
22450;DHT22;11392;57.390;-2.468;2023-11-19T04:30:05;8.10;99.90
22450;DHT22;11392;57.390;-2.468;2023-11-19T04:32:38;8.10;99.90
22450;DHT22;11392;57.390;-2.468;2023-11-19T04:35:05;8.10;99.90
22450;DHT22;11392;57.390;-2.468;2023-11-19T04:37:33;8.10;99.90
22450;DHT22;11392;57.390;-2.468;2023-11-19T04:40:02;8.10;99.90
22450;DHT22;11392;57.390;-2.468;2023-11-19T04:42:30;8.10;99.90
22450;DHT22;11392;57.390;-2.468;2023-11-19T04:44:59;8.10;99.90
22450;DHT22;11392;57.390;-2.468;2023-11-19T04:47:26;8.10;99.90
22450;DHT22;11392;57.390;-2.468;2023-11-19T04:49:53;8.10;99.90
22450;DHT22;11392;57.390;-2.468;2023-11-19T04:52:20;8.10;99.90
22450;DHT22;11392;57.390;-2.468;2023-11-19T04:54:48;8.10;99.90
22450;DHT22;11392;57.390;-2.468;2023-11-19T04:57:15;8.10;99.90
22450;DHT22;11392;57.390;-2.468;2023-11-19T04:59:42;8.00;99.90
22450;DHT22;11392;57.390;-2.468;2023-11-19T05:02:10;8.00;99.90
22450;DHT22;11392;57.390;-2.468;2023-11-19T05:04:37;8.10;99.90
22450;DHT22;11392;57.390;-2.468;2023-11-19T05:07:07;8.00;99.90
22450;DHT22;11392;57.390;-2.468;2023-11-19T05:09:34;8.00;99.90
22450;DHT22;11392;57.390;-2.468;2023-11-19T05:12:02;8.00;99.90
22450;DHT22;11392;57.390;-2.468;2023-11-19T05:14:30;8.00;99.90
22450;DHT22;11392;57.390;-2.468;2023-11-19T05:16:57;8.00;99.90
22450;DHT22;11392;57.390;-2.468;2023-11-19T05:19:24;8.00;99.90
22450;DHT22;11392;57.390;-2.468;2023-11-19T05:21:51;8.00;99.90
22450;DHT22;11392;57.390;-2.468;2023-11-19T05:24:19;8.00;99.90
22450;DHT22;11392;57.390;-2.468;2023-11-19T05:26:46;8.00;99.90
22450;DHT22;11392;57.390;-2.468;2023-11-19T05:29:14;8.10;99.90
22450;DHT22;11392;57.390;-2.468;2023-11-19T05:31:41;8.10;99.90
22450;DHT22;11392;57.390;-2.468;2023-11-19T05:34:11;8.10;99.90
22450;DHT22;11392;57.390;-2.468;2023-11-19T05:36:38;8.10;99.90
22450;DHT22;11392;57.390;-2.468;2023-11-19T05:39:07;8.00;99.90
22450;DHT22;11392;57.390;-2.468;2023-11-19T05:41:36;8.10;99.90
22450;DHT22;11392;57.390;-2.468;2023-11-19T05:44:03;8.10;99.90
22450;DHT22;11392;57.390;-2.468;2023-11-19T05:46:30;8.00;99.90
22450;DHT22;11392;57.390;-2.468;2023-11-19T05:48:57;8.00;99.90
22450;DHT22;11392;57.390;-2.468;2023-11-19T05:51:24;8.00;99.90
22450;DHT22;11392;57.390;-2.468;2023-11-19T05:53:52;8.10;99.90
22450;DHT22;11392;57.390;-2.468;2023-11-19T05:56:19;8.10;99.90
22450;DHT22;11392;57.390;-2.468;2023-11-19T05:58:49;8.10;99.90
22450;DHT22;11392;57.390;-2.468;2023-11-19T06:01:16;8.00;99.90
22450;DHT22;11392;57.390;-2.468;2023-11-19T06:03:44;8.00;99.90
22450;DHT22;11392;57.390;-2.468;2023-11-19T06:06:17;7.90;99.90
22450;DHT22;11392;57.390;-2.468;2023-11-19T06:08:44;7.80;99.90
22450;DHT22;11392;57.390;-2.468;2023-11-19T06:11:11;7.80;99.90
22450;DHT22;11392;57.390;-2.468;2023-11-19T06:13:45;7.80;99.90
22450;DHT22;11392;57.390;-2.468;2023-11-19T06:16:14;7.80;99.90
22450;DHT22;11392;57.390;-2.468;2023-11-19T06:18:41;7.80;99.90
22450;DHT22;11392;57.390;-2.468;2023-11-19T06:21:08;7.70;99.90
22450;DHT22;11392;57.390;-2.468;2023-11-19T06:23:35;7.80;99.90
22450;DHT22;11392;57.390;-2.468;2023-11-19T06:26:02;7.80;99.90
22450;DHT22;11392;57.390;-2.468;2023-11-19T06:28:30;7.70;99.90
22450;DHT22;11392;57.390;-2.468;2023-11-19T06:30:57;7.70;99.90
22450;DHT22;11392;57.390;-2.468;2023-11-19T06:33:25;7.70;99.90
22450;DHT22;11392;57.390;-2.468;2023-11-19T06:35:52;7.70;99.90
22450;DHT22;11392;57.390;-2.468;2023-11-19T06:38:19;7.70;99.90
22450;DHT22;11392;57.390;-2.468;2023-11-19T06:40:46;7.80;99.90
22450;DHT22;11392;57.390;-2.468;2023-11-19T06:43:14;7.80;99.90
22450;DHT22;11392;57.390;-2.468;2023-11-19T06:45:42;7.80;99.90
22450;DHT22;11392;57.390;-2.468;2023-11-19T06:48:09;7.70;99.90
22450;DHT22;11392;57.390;-2.468;2023-11-19T06:50:36;7.80;99.90
22450;DHT22;11392;57.390;-2.468;2023-11-19T06:53:03;7.80;99.90
22450;DHT22;11392;57.390;-2.468;2023-11-19T06:55:33;7.80;99.90
22450;DHT22;11392;57.390;-2.468;2023-11-19T06:58:00;7.80;99.90
22450;DHT22;11392;57.390;-2.468;2023-11-19T07:00:29;7.80;99.90
22450;DHT22;11392;57.390;-2.468;2023-11-19T07:02:59;7.80;99.90
22450;DHT22;11392;57.390;-2.468;2023-11-19T07:05:27;7.90;99.90
22450;DHT22;11392;57.390;-2.468;2023-11-19T07:07:55;8.00;99.90
22450;DHT22;11392;57.390;-2.468;2023-11-19T07:10:22;7.90;99.90
22450;DHT22;11392;57.390;-2.468;2023-11-19T07:12:50;7.90;99.90
22450;DHT22;11392;57.390;-2.468;2023-11-19T07:15:17;7.90;99.90
22450;DHT22;11392;57.390;-2.468;2023-11-19T07:17:44;7.90;99.90
22450;DHT22;11392;57.390;-2.468;2023-11-19T07:20:12;7.90;99.90
22450;DHT22;11392;57.390;-2.468;2023-11-19T07:22:45;7.90;99.90
22450;DHT22;11392;57.390;-2.468;2023-11-19T07:25:15;7.90;99.90
22450;DHT22;11392;57.390;-2.468;2023-11-19T07:27:43;7.90;99.90
22450;DHT22;11392;57.390;-2.468;2023-11-19T07:30:10;7.90;99.90
22450;DHT22;11392;57.390;-2.468;2023-11-19T07:32:37;7.80;99.90
22450;DHT22;11392;57.390;-2.468;2023-11-19T07:35:06;7.80;99.90
22450;DHT22;11392;57.390;-2.468;2023-11-19T07:37:34;7.70;99.90
22450;DHT22;11392;57.390;-2.468;2023-11-19T07:40:01;7.70;99.90
22450;DHT22;11392;57.390;-2.468;2023-11-19T07:42:28;7.70;99.90
22450;DHT22;11392;57.390;-2.468;2023-11-19T07:44:55;7.70;99.90
22450;DHT22;11392;57.390;-2.468;2023-11-19T07:47:23;7.70;99.90
22450;DHT22;11392;57.390;-2.468;2023-11-19T07:49:51;7.70;99.90
22450;DHT22;11392;57.390;-2.468;2023-11-19T07:52:18;7.70;99.90
22450;DHT22;11392;57.390;-2.468;2023-11-19T07:54:48;7.60;99.90
22450;DHT22;11392;57.390;-2.468;2023-11-19T07:57:15;7.60;99.90
22450;DHT22;11392;57.390;-2.468;2023-11-19T07:59:42;7.60;99.90
22450;DHT22;11392;57.390;-2.468;2023-11-19T08:02:09;7.50;99.90
22450;DHT22;11392;57.390;-2.468;2023-11-19T08:04:37;7.50;99.90
22450;DHT22;11392;57.390;-2.468;2023-11-19T08:07:07;7.50;99.90
22450;DHT22;11392;57.390;-2.468;2023-11-19T08:09:34;7.50;99.90
22450;DHT22;11392;57.390;-2.468;2023-11-19T08:12:01;7.50;99.90
22450;DHT22;11392;57.390;-2.468;2023-11-19T08:14:28;7.50;99.90
22450;DHT22;11392;57.390;-2.468;2023-11-19T08:16:55;7.50;99.90
22450;DHT22;11392;57.390;-2.468;2023-11-19T08:19:22;7.50;99.90
22450;DHT22;11392;57.390;-2.468;2023-11-19T08:21:49;7.50;99.90
22450;DHT22;11392;57.390;-2.468;2023-11-19T08:24:16;7.40;99.90
22450;DHT22;11392;57.390;-2.468;2023-11-19T08:26:43;7.50;99.90
22450;DHT22;11392;57.390;-2.468;2023-11-19T08:29:11;7.50;99.90
22450;DHT22;11392;57.390;-2.468;2023-11-19T08:31:38;7.50;99.90
22450;DHT22;11392;57.390;-2.468;2023-11-19T08:34:05;7.50;99.90
22450;DHT22;11392;57.390;-2.468;2023-11-19T08:36:35;7.50;99.90
22450;DHT22;11392;57.390;-2.468;2023-11-19T08:39:03;7.50;99.90
22450;DHT22;11392;57.390;-2.468;2023-11-19T08:41:30;7.40;99.90
22450;DHT22;11392;57.390;-2.468;2023-11-19T08:43:57;7.50;99.90
22450;DHT22;11392;57.390;-2.468;2023-11-19T08:46:24;7.40;99.90
22450;DHT22;11392;57.390;-2.468;2023-11-19T08:48:52;7.50;99.90
22450;DHT22;11392;57.390;-2.468;2023-11-19T08:51:19;7.50;99.90
22450;DHT22;11392;57.390;-2.468;2023-11-19T08:53:46;7.50;99.90
22450;DHT22;11392;57.390;-2.468;2023-11-19T08:56:13;7.50;99.90
22450;DHT22;11392;57.390;-2.468;2023-11-19T08:58:41;7.70;99.90
22450;DHT22;11392;57.390;-2.468;2023-11-19T09:01:08;7.90;99.90
22450;DHT22;11392;57.390;-2.468;2023-11-19T09:03:36;7.90;99.90
22450;DHT22;11392;57.390;-2.468;2023-11-19T09:06:04;7.90;99.90
22450;DHT22;11392;57.390;-2.468;2023-11-19T09:08:31;7.90;99.90
22450;DHT22;11392;57.390;-2.468;2023-11-19T09:10:58;7.90;99.90
22450;DHT22;11392;57.390;-2.468;2023-11-19T09:13:25;8.00;99.90
22450;DHT22;11392;57.390;-2.468;2023-11-19T09:15:52;8.00;99.90
22450;DHT22;11392;57.390;-2.468;2023-11-19T09:18:19;8.00;99.90
22450;DHT22;11392;57.390;-2.468;2023-11-19T09:20:47;8.00;99.90
22450;DHT22;11392;57.390;-2.468;2023-11-19T09:23:14;8.00;99.90
22450;DHT22;11392;57.390;-2.468;2023-11-19T09:25:41;8.00;99.90
22450;DHT22;11392;57.390;-2.468;2023-11-19T09:28:11;8.20;99.90
22450;DHT22;11392;57.390;-2.468;2023-11-19T09:30:40;8.20;99.90
22450;DHT22;11392;57.390;-2.468;2023-11-19T09:33:07;8.20;99.90
22450;DHT22;11392;57.390;-2.468;2023-11-19T09:35:34;8.20;99.90
22450;DHT22;11392;57.390;-2.468;2023-11-19T09:38:01;8.20;99.90
22450;DHT22;11392;57.390;-2.468;2023-11-19T09:40:31;8.10;99.90
22450;DHT22;11392;57.390;-2.468;2023-11-19T09:42:58;8.10;99.90
22450;DHT22;11392;57.390;-2.468;2023-11-19T09:45:27;8.10;99.90
22450;DHT22;11392;57.390;-2.468;2023-11-19T09:47:56;8.20;99.90
22450;DHT22;11392;57.390;-2.468;2023-11-19T09:50:24;8.10;99.90
22450;DHT22;11392;57.390;-2.468;2023-11-19T09:52:51;8.10;99.90
22450;DHT22;11392;57.390;-2.468;2023-11-19T09:55:18;8.00;99.90
22450;DHT22;11392;57.390;-2.468;2023-11-19T09:57:48;8.00;99.90
22450;DHT22;11392;57.390;-2.468;2023-11-19T10:00:17;8.00;99.90
22450;DHT22;11392;57.390;-2.468;2023-11-19T10:02:47;8.10;99.90
22450;DHT22;11392;57.390;-2.468;2023-11-19T10:05:15;8.10;99.90
22450;DHT22;11392;57.390;-2.468;2023-11-19T10:07:43;8.20;99.90
22450;DHT22;11392;57.390;-2.468;2023-11-19T10:10:12;8.20;99.90
22450;DHT22;11392;57.390;-2.468;2023-11-19T10:12:46;8.20;99.90
22450;DHT22;11392;57.390;-2.468;2023-11-19T10:15:23;8.30;99.90
22450;DHT22;11392;57.390;-2.468;2023-11-19T10:17:55;8.30;99.90
22450;DHT22;11392;57.390;-2.468;2023-11-19T10:20:23;8.40;99.90
22450;DHT22;11392;57.390;-2.468;2023-11-19T10:22:54;8.40;99.90
22450;DHT22;11392;57.390;-2.468;2023-11-19T10:25:26;8.50;99.90
22450;DHT22;11392;57.390;-2.468;2023-11-19T10:27:55;8.40;99.90
22450;DHT22;11392;57.390;-2.468;2023-11-19T10:30:30;8.50;99.90
22450;DHT22;11392;57.390;-2.468;2023-11-19T10:33:07;8.60;99.90
22450;DHT22;11392;57.390;-2.468;2023-11-19T10:35:57;8.60;99.90
22450;DHT22;11392;57.390;-2.468;2023-11-19T10:38:29;8.70;99.90
22450;DHT22;11392;57.390;-2.468;2023-11-19T10:40:57;8.80;99.90
22450;DHT22;11392;57.390;-2.468;2023-11-19T10:43:25;8.90;99.90
22450;DHT22;11392;57.390;-2.468;2023-11-19T10:45:52;8.90;99.90
22450;DHT22;11392;57.390;-2.468;2023-11-19T10:48:20;9.00;99.90
22450;DHT22;11392;57.390;-2.468;2023-11-19T10:50:53;9.00;99.90
22450;DHT22;11392;57.390;-2.468;2023-11-19T10:53:23;9.10;99.90
22450;DHT22;11392;57.390;-2.468;2023-11-19T10:55:55;9.10;99.90
22450;DHT22;11392;57.390;-2.468;2023-11-19T10:58:26;9.10;99.90
22450;DHT22;11392;57.390;-2.468;2023-11-19T11:01:01;9.20;99.90
22450;DHT22;11392;57.390;-2.468;2023-11-19T11:03:40;9.30;99.90
22450;DHT22;11392;57.390;-2.468;2023-11-19T11:06:08;9.30;99.90
22450;DHT22;11392;57.390;-2.468;2023-11-19T11:08:40;9.30;99.90
22450;DHT22;11392;57.390;-2.468;2023-11-19T11:11:07;9.40;99.90
22450;DHT22;11392;57.390;-2.468;2023-11-19T11:13:37;9.30;99.90
22450;DHT22;11392;57.390;-2.468;2023-11-19T11:16:06;9.30;99.90
22450;DHT22;11392;57.390;-2.468;2023-11-19T11:18:35;9.40;99.90
22450;DHT22;11392;57.390;-2.468;2023-11-19T11:21:11;9.50;99.90
22450;DHT22;11392;57.390;-2.468;2023-11-19T11:29:35;10.20;99.90
22450;DHT22;11392;57.390;-2.468;2023-11-19T11:32:41;10.30;99.90
22450;DHT22;11392;57.390;-2.468;2023-11-19T11:37:47;10.20;99.90
22450;DHT22;11392;57.390;-2.468;2023-11-19T11:40:17;10.10;99.90
22450;DHT22;11392;57.390;-2.468;2023-11-19T11:42:45;10.10;99.90
22450;DHT22;11392;57.390;-2.468;2023-11-19T11:45:14;10.10;99.90
22450;DHT22;11392;57.390;-2.468;2023-11-19T11:50:13;10.10;99.90
22450;DHT22;11392;57.390;-2.468;2023-11-19T11:53:13;10.10;99.90
22450;DHT22;11392;57.390;-2.468;2023-11-19T11:58:31;9.90;99.90
22450;DHT22;11392;57.390;-2.468;2023-11-19T12:01:00;9.90;99.90
22450;DHT22;11392;57.390;-2.468;2023-11-19T12:03:29;9.90;99.90
22450;DHT22;11392;57.390;-2.468;2023-11-19T12:05:58;9.90;99.90
22450;DHT22;11392;57.390;-2.468;2023-11-19T12:08:27;9.90;99.90
22450;DHT22;11392;57.390;-2.468;2023-11-19T12:10:56;9.90;99.90
22450;DHT22;11392;57.390;-2.468;2023-11-19T12:13:46;9.90;99.90
22450;DHT22;11392;57.390;-2.468;2023-11-19T12:16:14;9.90;99.90
22450;DHT22;11392;57.390;-2.468;2023-11-19T12:18:41;10.00;99.90
22450;DHT22;11392;57.390;-2.468;2023-11-19T12:21:09;10.00;99.90
22450;DHT22;11392;57.390;-2.468;2023-11-19T12:23:45;9.90;99.90
22450;DHT22;11392;57.390;-2.468;2023-11-19T12:26:34;9.90;99.90
22450;DHT22;11392;57.390;-2.468;2023-11-19T12:29:01;9.90;99.90
22450;DHT22;11392;57.390;-2.468;2023-11-19T12:31:34;9.90;99.90
22450;DHT22;11392;57.390;-2.468;2023-11-19T12:34:06;9.90;99.90
22450;DHT22;11392;57.390;-2.468;2023-11-19T12:36:35;9.90;99.90
22450;DHT22;11392;57.390;-2.468;2023-11-19T12:39:02;9.90;99.90
22450;DHT22;11392;57.390;-2.468;2023-11-19T12:41:30;9.90;99.90
22450;DHT22;11392;57.390;-2.468;2023-11-19T12:44:10;10.00;99.90
22450;DHT22;11392;57.390;-2.468;2023-11-19T12:46:39;10.00;99.90
22450;DHT22;11392;57.390;-2.468;2023-11-19T12:49:06;10.00;99.90
22450;DHT22;11392;57.390;-2.468;2023-11-19T12:51:33;10.10;99.90
22450;DHT22;11392;57.390;-2.468;2023-11-19T12:54:01;10.10;99.90
22450;DHT22;11392;57.390;-2.468;2023-11-19T12:56:28;10.10;99.90
22450;DHT22;11392;57.390;-2.468;2023-11-19T12:58:56;10.10;99.90
22450;DHT22;11392;57.390;-2.468;2023-11-19T13:01:23;10.20;99.90
22450;DHT22;11392;57.390;-2.468;2023-11-19T13:03:51;10.20;99.90
22450;DHT22;11392;57.390;-2.468;2023-11-19T13:06:18;10.20;99.90
22450;DHT22;11392;57.390;-2.468;2023-11-19T13:08:49;10.20;99.90
22450;DHT22;11392;57.390;-2.468;2023-11-19T13:11:32;10.30;99.90
22450;DHT22;11392;57.390;-2.468;2023-11-19T13:14:01;10.30;99.90
22450;DHT22;11392;57.390;-2.468;2023-11-19T13:16:31;10.30;99.90
22450;DHT22;11392;57.390;-2.468;2023-11-19T13:18:59;10.30;99.90
22450;DHT22;11392;57.390;-2.468;2023-11-19T13:21:27;10.30;99.90
22450;DHT22;11392;57.390;-2.468;2023-11-19T13:23:55;10.30;99.90
22450;DHT22;11392;57.390;-2.468;2023-11-19T13:26:22;10.30;99.90
22450;DHT22;11392;57.390;-2.468;2023-11-19T13:28:49;10.30;99.90
22450;DHT22;11392;57.390;-2.468;2023-11-19T13:31:17;10.30;99.90
22450;DHT22;11392;57.390;-2.468;2023-11-19T13:33:45;10.30;99.90
22450;DHT22;11392;57.390;-2.468;2023-11-19T13:36:13;10.30;99.90
22450;DHT22;11392;57.390;-2.468;2023-11-19T13:38:44;10.40;99.90
22450;DHT22;11392;57.390;-2.468;2023-11-19T13:41:12;10.40;99.90
22450;DHT22;11392;57.390;-2.468;2023-11-19T13:43:40;10.30;99.90
22450;DHT22;11392;57.390;-2.468;2023-11-19T13:46:08;10.30;99.90
22450;DHT22;11392;57.390;-2.468;2023-11-19T13:48:38;10.40;99.90
22450;DHT22;11392;57.390;-2.468;2023-11-19T13:51:06;10.40;99.90
22450;DHT22;11392;57.390;-2.468;2023-11-19T13:53:34;10.60;99.90
22450;DHT22;11392;57.390;-2.468;2023-11-19T13:56:05;11.20;99.90
22450;DHT22;11392;57.390;-2.468;2023-11-19T13:58:32;11.30;99.90
22450;DHT22;11392;57.390;-2.468;2023-11-19T14:01:02;11.30;99.90
22450;DHT22;11392;57.390;-2.468;2023-11-19T14:03:35;11.40;99.90
22450;DHT22;11392;57.390;-2.468;2023-11-19T14:06:03;11.40;99.90
22450;DHT22;11392;57.390;-2.468;2023-11-19T14:08:30;11.30;99.90
22450;DHT22;11392;57.390;-2.468;2023-11-19T14:10:58;11.20;99.90
22450;DHT22;11392;57.390;-2.468;2023-11-19T14:13:29;11.10;99.90
22450;DHT22;11392;57.390;-2.468;2023-11-19T14:15:57;11.10;99.90
22450;DHT22;11392;57.390;-2.468;2023-11-19T14:18:28;11.00;99.90
22450;DHT22;11392;57.390;-2.468;2023-11-19T14:20:56;11.00;99.90
22450;DHT22;11392;57.390;-2.468;2023-11-19T14:23:24;11.00;99.90
22450;DHT22;11392;57.390;-2.468;2023-11-19T14:25:53;11.00;99.90
22450;DHT22;11392;57.390;-2.468;2023-11-19T14:28:23;10.90;99.90
22450;DHT22;11392;57.390;-2.468;2023-11-19T14:30:55;10.90;99.90
22450;DHT22;11392;57.390;-2.468;2023-11-19T14:33:24;10.80;99.90
22450;DHT22;11392;57.390;-2.468;2023-11-19T14:35:54;10.80;99.90
22450;DHT22;11392;57.390;-2.468;2023-11-19T14:38:22;10.80;99.90
22450;DHT22;11392;57.390;-2.468;2023-11-19T14:40:50;10.80;99.90
22450;DHT22;11392;57.390;-2.468;2023-11-19T14:43:18;10.80;99.90
22450;DHT22;11392;57.390;-2.468;2023-11-19T14:45:48;10.80;99.90
22450;DHT22;11392;57.390;-2.468;2023-11-19T14:48:17;10.70;99.90
22450;DHT22;11392;57.390;-2.468;2023-11-19T14:50:48;10.70;99.90
22450;DHT22;11392;57.390;-2.468;2023-11-19T14:53:17;10.80;99.90
22450;DHT22;11392;57.390;-2.468;2023-11-19T14:55:49;10.70;99.90
22450;DHT22;11392;57.390;-2.468;2023-11-19T14:58:17;10.60;99.90
22450;DHT22;11392;57.390;-2.468;2023-11-19T15:00:45;10.60;99.90
22450;DHT22;11392;57.390;-2.468;2023-11-19T15:03:13;10.50;99.90
22450;DHT22;11392;57.390;-2.468;2023-11-19T15:05:44;10.50;99.90
22450;DHT22;11392;57.390;-2.468;2023-11-19T15:08:13;10.60;99.90
22450;DHT22;11392;57.390;-2.468;2023-11-19T15:10:43;10.60;99.90
22450;DHT22;11392;57.390;-2.468;2023-11-19T15:13:12;10.40;99.90
22450;DHT22;11392;57.390;-2.468;2023-11-19T15:15:40;10.40;99.90
22450;DHT22;11392;57.390;-2.468;2023-11-19T15:18:08;10.40;99.90
22450;DHT22;11392;57.390;-2.468;2023-11-19T15:20:37;10.40;99.90
22450;DHT22;11392;57.390;-2.468;2023-11-19T15:23:05;10.30;99.90
22450;DHT22;11392;57.390;-2.468;2023-11-19T15:25:35;10.30;99.90
22450;DHT22;11392;57.390;-2.468;2023-11-19T15:28:06;10.30;99.90
22450;DHT22;11392;57.390;-2.468;2023-11-19T15:30:33;10.20;99.90
22450;DHT22;11392;57.390;-2.468;2023-11-19T15:33:01;10.20;99.90
22450;DHT22;11392;57.390;-2.468;2023-11-19T15:35:29;10.20;99.90
22450;DHT22;11392;57.390;-2.468;2023-11-19T15:37:56;10.10;99.90
22450;DHT22;11392;57.390;-2.468;2023-11-19T15:40:25;10.10;99.90
22450;DHT22;11392;57.390;-2.468;2023-11-19T15:42:53;10.10;99.90
22450;DHT22;11392;57.390;-2.468;2023-11-19T15:45:22;10.10;99.90
22450;DHT22;11392;57.390;-2.468;2023-11-19T15:47:50;10.10;99.90
22450;DHT22;11392;57.390;-2.468;2023-11-19T15:50:17;10.10;99.90